createdAt,value
2023-02-19T00:00:53.105Z,19.10
2023-02-19T00:03:25.227Z,17.60
2023-02-19T00:05:57.228Z,16.43
2023-02-19T00:08:32.239Z,15.50
2023-02-19T00:11:12.069Z,14.60
2023-02-19T00:13:47.921Z,14.73
2023-02-19T00:16:28.630Z,14.57
2023-02-19T00:19:04.334Z,15.07
2023-02-19T00:21:36.289Z,15.47
2023-02-19T00:24:12.058Z,14.67
2023-02-19T00:26:45.984Z,14.83
2023-02-19T00:29:22.079Z,14.70
2023-02-19T00:31:54.075Z,14.07
2023-02-19T00:34:26.096Z,14.50
2023-02-19T00:36:58.126Z,14.17
2023-02-19T00:39:30.249Z,13.90
2023-02-19T00:42:02.387Z,12.90
2023-02-19T00:44:34.303Z,13.60
2023-02-19T00:47:06.521Z,13.13
2023-02-19T00:49:38.556Z,12.87
2023-02-19T00:52:10.446Z,11.93
2023-02-19T00:54:42.402Z,11.40
2023-02-19T00:57:14.325Z,12.30
2023-02-19T00:59:46.347Z,11.00
2023-02-19T01:02:18.344Z,10.43
2023-02-19T01:04:50.354Z,9.93
2023-02-19T01:07:22.296Z,10.00
2023-02-19T01:09:54.218Z,10.13
2023-02-19T01:12:28.107Z,10.13
2023-02-19T01:15:00.088Z,9.77
2023-02-19T01:17:32.034Z,8.87
2023-02-19T01:20:04.398Z,8.90
2023-02-19T01:22:36.335Z,8.77
2023-02-19T01:25:08.657Z,8.47
2023-02-19T01:27:40.580Z,8.20
2023-02-19T01:30:13.124Z,7.30
2023-02-19T01:32:45.352Z,7.73
2023-02-19T01:35:17.491Z,7.10
2023-02-19T01:37:49.498Z,7.10
2023-02-19T01:40:21.489Z,6.93
2023-02-19T01:42:53.431Z,7.10
2023-02-19T01:45:44.127Z,6.30
2023-02-19T01:48:27.556Z,7.00
2023-02-19T01:51:17.715Z,6.30
2023-02-19T01:53:57.947Z,6.67
2023-02-19T01:56:32.295Z,6.83
2023-02-19T01:59:06.843Z,6.97
2023-02-19T02:01:41.156Z,6.70
2023-02-19T02:04:15.412Z,6.90
2023-02-19T02:06:54.850Z,6.33
2023-02-19T02:09:49.445Z,6.10
2023-02-19T02:12:21.393Z,6.30
2023-02-19T02:14:53.326Z,5.87
2023-02-19T02:17:31.136Z,6.10
2023-02-19T02:20:12.556Z,5.87
2023-02-19T02:23:27.366Z,6.70
2023-02-19T02:27:19.584Z,5.70
2023-02-19T02:30:07.690Z,5.83
2023-02-19T02:33:14.764Z,6.37
2023-02-19T02:36:07.754Z,5.80
2023-02-19T02:38:44.324Z,5.53
2023-02-19T02:41:16.652Z,5.87
2023-02-19T02:43:48.643Z,6.10
2023-02-19T02:46:30.213Z,5.50
2023-02-19T02:49:17.341Z,6.33
2023-02-19T02:51:54.614Z,5.83
2023-02-19T02:54:52.390Z,5.63
2023-02-19T02:57:24.732Z,5.97
2023-02-19T02:59:57.124Z,5.80
2023-02-19T03:02:31.927Z,5.57
2023-02-19T03:05:27.370Z,5.57
2023-02-19T03:08:10.324Z,5.57
2023-02-19T03:11:24.709Z,5.40
2023-02-19T03:14:25.241Z,5.50
2023-02-19T03:17:27.476Z,5.70
2023-02-19T03:20:05.713Z,5.00
2023-02-19T03:22:41.783Z,5.80
2023-02-19T03:25:43.057Z,5.40
2023-02-19T03:28:19.851Z,5.90
2023-02-19T03:30:55.830Z,4.77
2023-02-19T03:33:30.454Z,5.07
2023-02-19T03:36:07.950Z,4.90
2023-02-19T03:38:44.159Z,4.67
2023-02-19T03:42:06.035Z,4.60
2023-02-19T03:45:21.609Z,4.30
2023-02-19T03:48:15.547Z,4.63
2023-02-19T03:51:13.125Z,4.07
2023-02-19T03:54:02.935Z,4.30
2023-02-19T03:56:56.093Z,4.73
2023-02-19T03:59:54.227Z,4.27
2023-02-19T04:02:54.394Z,4.03
2023-02-19T04:05:39.606Z,4.50
2023-02-19T04:08:23.541Z,4.07
2023-02-19T04:10:59.229Z,3.83
2023-02-19T04:13:38.534Z,4.43
2023-02-19T04:16:22.472Z,3.60
2023-02-19T04:19:07.893Z,4.03
2023-02-19T04:21:42.211Z,3.97
2023-02-19T04:24:32.083Z,4.20
2023-02-19T04:27:06.324Z,3.77
2023-02-19T04:29:39.268Z,3.57
2023-02-19T04:32:13.558Z,3.93
2023-02-19T04:34:45.730Z,3.70
2023-02-19T04:37:17.695Z,3.90
2023-02-19T04:39:49.662Z,3.73
2023-02-19T04:42:21.740Z,4.40
2023-02-19T04:44:53.768Z,4.30
2023-02-19T04:47:25.825Z,4.03
2023-02-19T04:49:57.773Z,3.70
2023-02-19T04:52:29.764Z,3.80
2023-02-19T04:55:01.906Z,3.70
2023-02-19T04:57:34.531Z,4.23
2023-02-19T05:00:08.239Z,4.27
2023-02-19T05:02:40.189Z,3.90
2023-02-19T05:05:12.146Z,3.60
2023-02-19T05:07:44.108Z,4.50
2023-02-19T05:10:16.231Z,3.87
2023-02-19T05:12:48.214Z,3.97
2023-02-19T05:15:20.143Z,3.80
2023-02-19T05:17:52.077Z,3.70
2023-02-19T05:20:24.046Z,3.90
2023-02-19T05:22:56.122Z,3.87
2023-02-19T05:25:28.024Z,4.00
2023-02-19T05:28:17.051Z,4.27
2023-02-19T05:30:52.506Z,3.47
2023-02-19T05:33:26.220Z,4.00
2023-02-19T05:35:58.389Z,4.23
2023-02-19T05:38:30.315Z,4.30
2023-02-19T05:41:11.052Z,4.30
2023-02-19T05:43:46.181Z,3.83
2023-02-19T05:46:22.387Z,4.80
2023-02-19T05:48:55.381Z,4.03
2023-02-19T05:51:28.097Z,4.03
2023-02-19T05:54:00.000Z,4.47
2023-02-19T05:56:42.886Z,4.40
2023-02-19T05:59:23.233Z,4.13
2023-02-19T06:01:55.834Z,4.17
2023-02-19T06:04:27.798Z,3.97
2023-02-19T06:06:59.738Z,3.60
2023-02-19T06:09:32.381Z,3.67
2023-02-19T06:12:04.710Z,4.10
2023-02-19T06:14:36.633Z,4.00
2023-02-19T06:17:08.553Z,4.30
2023-02-19T06:19:40.508Z,3.90
2023-02-19T06:22:15.650Z,4.07
2023-02-19T06:24:48.408Z,3.93
2023-02-19T06:27:20.461Z,3.90
2023-02-19T06:29:52.354Z,3.83
2023-02-19T06:32:24.492Z,3.97
2023-02-19T06:34:56.538Z,3.70
2023-02-19T06:37:29.275Z,4.43
2023-02-19T06:40:01.347Z,4.30
2023-02-19T06:42:33.402Z,4.17
2023-02-19T06:45:06.082Z,4.73
2023-02-19T06:47:38.067Z,4.13
2023-02-19T06:50:10.159Z,4.10
2023-02-19T06:52:42.136Z,4.60
2023-02-19T06:55:14.212Z,4.70
2023-02-19T06:57:46.278Z,4.57
2023-02-19T07:00:18.608Z,5.00
2023-02-19T07:02:56.453Z,4.03
2023-02-19T07:05:28.446Z,4.77
2023-02-19T07:08:00.396Z,4.77
2023-02-19T07:10:32.306Z,4.63
2023-02-19T07:13:04.599Z,4.63
2023-02-19T07:15:36.556Z,5.13
2023-02-19T07:18:10.597Z,4.83
2023-02-19T07:20:42.527Z,4.63
2023-02-19T07:23:14.470Z,4.60
2023-02-19T07:25:46.804Z,4.40
2023-02-19T07:28:18.794Z,4.60
2023-02-19T07:30:50.743Z,4.70
2023-02-19T07:33:22.723Z,4.50
2023-02-19T07:35:54.631Z,4.67
2023-02-19T07:38:27.288Z,5.03
2023-02-19T07:41:04.375Z,4.80
2023-02-19T07:43:38.601Z,4.53
2023-02-19T07:46:13.706Z,5.17
2023-02-19T07:48:46.502Z,5.23
2023-02-19T07:51:20.621Z,4.87
2023-02-19T07:53:52.645Z,4.77
2023-02-19T07:56:24.546Z,5.40
2023-02-19T07:58:56.481Z,4.97
2023-02-19T08:01:46.801Z,5.63
2023-02-19T08:04:18.957Z,5.60
2023-02-19T08:06:53.233Z,5.57
2023-02-19T08:09:25.162Z,6.03
2023-02-19T08:12:15.456Z,6.13
2023-02-19T08:14:47.319Z,6.40
2023-02-19T08:17:19.291Z,6.63
2023-02-19T08:19:51.234Z,6.80
2023-02-19T08:22:23.133Z,6.87
2023-02-19T08:24:55.053Z,6.80
2023-02-19T08:27:27.017Z,7.43
2023-02-19T08:29:58.958Z,7.43
2023-02-19T08:32:30.996Z,7.00
2023-02-19T08:35:02.921Z,6.83
2023-02-19T08:37:34.862Z,6.70
2023-02-19T08:40:07.060Z,6.30
2023-02-19T08:42:39.579Z,7.07
2023-02-19T08:45:11.679Z,6.87
2023-02-19T08:47:43.936Z,6.63
2023-02-19T08:50:15.926Z,6.33
2023-02-19T08:52:48.052Z,6.93
2023-02-19T08:55:20.486Z,6.67
2023-02-19T08:57:52.817Z,7.33
2023-02-19T09:00:25.120Z,6.90
2023-02-19T09:02:58.711Z,7.30
2023-02-19T09:05:30.635Z,7.77
2023-02-19T09:08:02.571Z,8.30
2023-02-19T09:10:34.625Z,9.27
2023-02-19T09:13:06.639Z,8.87
2023-02-19T09:15:39.305Z,8.93
2023-02-19T09:18:11.251Z,8.37
2023-02-19T09:20:43.178Z,8.10
2023-02-19T09:23:15.102Z,7.70
2023-02-19T09:25:47.099Z,7.30
2023-02-19T09:28:19.346Z,7.50
2023-02-19T09:30:51.329Z,7.03
2023-02-19T09:33:23.440Z,6.73
2023-02-19T09:35:59.697Z,6.83
2023-02-19T09:38:31.661Z,6.33
2023-02-19T09:41:46.551Z,6.80
2023-02-19T09:44:41.509Z,6.50
2023-02-19T09:47:21.544Z,6.90
2023-02-19T09:50:12.846Z,7.20
2023-02-19T09:53:10.247Z,7.77
2023-02-19T09:55:44.997Z,7.90
2023-02-19T09:58:35.181Z,8.33
2023-02-19T10:01:12.928Z,8.53
2023-02-19T10:03:48.537Z,8.60
2023-02-19T10:06:24.118Z,8.73
2023-02-19T10:09:22.655Z,9.03
2023-02-19T10:11:56.750Z,9.37
2023-02-19T10:14:41.877Z,8.70
2023-02-19T10:17:31.907Z,8.80
2023-02-19T10:20:04.774Z,8.43
2023-02-19T10:22:38.340Z,7.87
2023-02-19T10:25:16.626Z,8.50
2023-02-19T10:27:49.389Z,8.07
2023-02-19T10:30:30.264Z,8.30
2023-02-19T10:33:15.023Z,8.43
2023-02-19T10:36:16.020Z,8.07
2023-02-19T10:38:48.358Z,10.00
2023-02-19T10:41:24.968Z,10.57
2023-02-19T10:44:22.244Z,11.47
2023-02-19T10:46:59.179Z,11.97
2023-02-19T10:49:43.417Z,12.27
2023-02-19T10:52:30.356Z,12.17
2023-02-19T10:55:28.374Z,12.13
2023-02-19T10:58:27.720Z,12.17
2023-02-19T11:01:25.760Z,12.67
2023-02-19T11:04:18.587Z,12.30
2023-02-19T11:06:50.899Z,11.80
2023-02-19T11:09:30.990Z,11.37
2023-02-19T11:12:05.078Z,10.77
2023-02-19T11:14:37.113Z,10.43
2023-02-19T11:17:26.416Z,10.47
2023-02-19T11:20:09.942Z,9.83
2023-02-19T11:22:49.190Z,10.17
2023-02-19T11:25:25.845Z,10.57
2023-02-19T11:28:08.349Z,9.70
2023-02-19T11:30:46.305Z,8.20
2023-02-19T11:33:20.841Z,7.80
2023-02-19T11:36:15.984Z,6.03
2023-02-19T11:38:47.967Z,5.30
2023-02-19T11:41:28.753Z,4.43
2023-02-19T11:44:13.074Z,3.70
2023-02-19T11:46:59.689Z,3.93
2023-02-19T11:49:49.063Z,4.17
2023-02-19T11:52:41.167Z,3.60
2023-02-19T11:55:31.589Z,3.47
2023-02-19T11:58:54.486Z,3.20
2023-02-19T12:02:02.915Z,3.00
2023-02-19T12:05:18.888Z,2.80
2023-02-19T12:08:10.367Z,2.50
2023-02-19T12:10:56.994Z,2.70
2023-02-19T12:14:03.301Z,2.70
2023-02-19T12:17:03.335Z,2.80
2023-02-19T12:20:44.966Z,2.40
2023-02-19T12:23:35.329Z,2.37
2023-02-19T12:26:24.915Z,2.37
2023-02-19T12:29:11.134Z,2.10
2023-02-19T12:31:52.426Z,2.33
2023-02-19T12:35:01.915Z,2.20
2023-02-19T12:38:11.220Z,2.30
2023-02-19T12:41:15.624Z,2.07
2023-02-19T12:44:09.492Z,2.30
2023-02-19T12:46:53.367Z,2.40
2023-02-19T12:49:42.316Z,2.10
2023-02-19T12:52:25.370Z,2.03
2023-02-19T12:55:25.907Z,2.37
2023-02-19T12:58:04.451Z,2.17
2023-02-19T13:00:45.101Z,2.20
2023-02-19T13:03:35.568Z,2.30
2023-02-19T13:06:27.823Z,2.30
2023-02-19T13:09:33.496Z,2.13
2023-02-19T13:12:23.416Z,2.17
2023-02-19T13:15:03.484Z,2.10
2023-02-19T13:17:48.961Z,2.20
2023-02-19T13:20:39.202Z,2.20
2023-02-19T13:23:43.681Z,2.30
2023-02-19T13:26:40.100Z,2.13
2023-02-19T13:29:53.479Z,2.20
2023-02-19T13:33:05.396Z,2.10
2023-02-19T13:36:06.015Z,1.90
2023-02-19T13:38:46.280Z,1.80
2023-02-19T13:41:41.489Z,1.80
2023-02-19T13:44:24.966Z,1.60
2023-02-19T13:46:57.903Z,1.70
2023-02-19T13:49:29.882Z,1.80
2023-02-19T13:52:29.228Z,1.80
2023-02-19T13:55:52.451Z,1.80
2023-02-19T13:58:33.794Z,1.80
2023-02-19T14:01:11.968Z,1.60
2023-02-19T14:04:06.544Z,1.57
2023-02-19T14:07:03.065Z,1.23
2023-02-19T14:09:37.866Z,1.60
2023-02-19T14:12:10.253Z,1.30
2023-02-19T14:14:44.211Z,1.40
2023-02-19T14:17:28.022Z,1.57
2023-02-19T14:20:08.946Z,1.57
2023-02-19T14:22:47.393Z,1.50
2023-02-19T14:25:30.934Z,1.40
2023-02-19T14:28:36.183Z,1.80
2023-02-19T14:31:29.113Z,1.70
2023-02-19T14:34:14.426Z,1.90
2023-02-19T14:37:01.660Z,1.50
2023-02-19T14:39:40.346Z,1.87
2023-02-19T14:42:24.596Z,2.23
2023-02-19T14:45:02.802Z,2.30
2023-02-19T14:47:37.455Z,2.10
2023-02-19T14:50:31.509Z,1.90
2023-02-19T14:53:08.878Z,2.00
2023-02-19T14:55:42.916Z,2.10
2023-02-19T14:58:29.399Z,2.03
2023-02-19T15:01:01.402Z,1.97
2023-02-19T15:03:37.637Z,2.10
2023-02-19T15:06:17.572Z,2.28
2023-02-19T15:08:57.572Z,2.10
2023-02-19T15:11:32.516Z,2.40
2023-02-19T15:14:08.157Z,2.33
2023-02-19T15:16:40.559Z,2.10
2023-02-19T15:19:17.127Z,2.30
2023-02-19T15:21:50.334Z,2.30
2023-02-19T15:24:22.895Z,2.20
2023-02-19T15:26:56.215Z,2.40
2023-02-19T15:29:28.744Z,2.23
2023-02-19T15:32:02.387Z,2.30
2023-02-19T15:34:34.429Z,2.30
2023-02-19T15:37:12.825Z,2.40
2023-02-19T15:39:48.243Z,2.20
2023-02-19T15:42:38.618Z,2.60
2023-02-19T15:45:28.234Z,2.20
2023-02-19T15:48:22.988Z,2.13
2023-02-19T15:51:08.302Z,1.90
2023-02-19T15:53:56.473Z,1.50
2023-02-19T15:56:36.551Z,1.40
2023-02-19T15:59:38.504Z,1.30
2023-02-19T16:02:16.030Z,1.20
2023-02-19T16:04:48.128Z,1.30
2023-02-19T16:07:28.527Z,1.30
2023-02-19T16:10:26.561Z,1.40
2023-02-19T16:13:04.889Z,1.53
2023-02-19T16:15:39.691Z,1.40
2023-02-19T16:18:15.257Z,1.40
2023-02-19T16:20:48.015Z,1.40
2023-02-19T16:23:24.401Z,1.50
2023-02-19T16:26:03.279Z,1.40
2023-02-19T16:28:40.328Z,1.37
2023-02-19T16:31:14.014Z,1.20
2023-02-19T16:33:48.683Z,1.37
2023-02-19T16:36:27.317Z,1.23
2023-02-19T16:39:07.879Z,1.40
2023-02-19T16:41:39.819Z,1.60
2023-02-19T16:44:20.925Z,1.50
2023-02-19T16:47:00.449Z,1.50
2023-02-19T16:49:32.953Z,1.40
2023-02-19T16:52:05.158Z,1.50
2023-02-19T16:54:37.077Z,1.53
2023-02-19T16:57:09.129Z,1.80
2023-02-19T16:59:41.129Z,1.70
2023-02-19T17:02:22.287Z,1.85
2023-02-19T17:04:55.865Z,1.60
2023-02-19T17:07:27.975Z,1.60
2023-02-19T17:09:59.907Z,1.40
2023-02-19T17:12:31.953Z,1.50
2023-02-19T17:15:04.657Z,1.43
2023-02-19T17:17:36.614Z,1.67
2023-02-19T17:20:17.691Z,1.50
2023-02-19T17:22:49.857Z,1.27
2023-02-19T17:25:22.088Z,1.40
2023-02-19T17:27:54.107Z,1.33
2023-02-19T17:30:31.653Z,1.30
2023-02-19T17:33:03.801Z,1.20
2023-02-19T17:35:35.801Z,1.20
2023-02-19T17:38:14.005Z,1.40
2023-02-19T17:40:46.123Z,1.10
2023-02-19T17:43:18.079Z,1.30
2023-02-19T17:45:50.416Z,1.17
2023-02-19T17:48:22.380Z,1.20
2023-02-19T17:50:54.353Z,1.30
2023-02-19T17:53:26.277Z,1.17
2023-02-19T17:55:58.286Z,1.20
2023-02-19T17:58:30.259Z,1.00
2023-02-19T18:01:02.237Z,1.10
2023-02-19T18:03:34.223Z,1.10
2023-02-19T18:06:06.676Z,1.27
2023-02-19T18:08:38.966Z,1.10
2023-02-19T18:11:11.082Z,1.27
2023-02-19T18:13:43.289Z,0.97
2023-02-19T18:16:18.300Z,1.20
2023-02-19T18:18:50.753Z,1.10
2023-02-19T18:21:24.326Z,1.33
2023-02-19T18:23:56.229Z,1.40
2023-02-19T18:26:28.298Z,1.30
2023-02-19T18:29:01.016Z,1.10
2023-02-19T18:31:34.144Z,1.23
2023-02-19T18:34:11.744Z,1.10
2023-02-19T18:36:48.470Z,1.10
2023-02-19T18:39:20.601Z,1.17
2023-02-19T18:41:53.052Z,1.00
2023-02-19T18:44:25.599Z,1.13
2023-02-19T18:46:57.607Z,1.20
2023-02-19T18:49:29.700Z,1.00
2023-02-19T18:52:01.970Z,1.30
2023-02-19T18:54:33.965Z,1.30
2023-02-19T18:57:07.506Z,1.10
2023-02-19T18:59:43.377Z,1.17
2023-02-19T19:02:16.169Z,1.27
2023-02-19T19:04:54.269Z,1.83
2023-02-19T19:07:26.263Z,1.40
2023-02-19T19:09:58.256Z,1.70
2023-02-19T19:12:30.330Z,1.50
2023-02-19T19:15:02.386Z,1.70
2023-02-19T19:17:34.384Z,1.90
2023-02-19T19:20:07.522Z,1.60
2023-02-19T19:22:39.557Z,1.30
2023-02-19T19:25:11.940Z,1.40
2023-02-19T19:27:43.842Z,1.40
2023-02-19T19:30:16.400Z,1.10
2023-02-19T19:32:52.619Z,1.60
2023-02-19T19:35:24.665Z,1.40
2023-02-19T19:37:56.643Z,1.33
2023-02-19T19:40:28.684Z,1.47
2023-02-19T19:43:00.673Z,1.63
2023-02-19T19:45:32.624Z,1.70
2023-02-19T19:48:06.303Z,1.50
2023-02-19T19:50:38.303Z,1.57
2023-02-19T19:53:10.306Z,1.60
2023-02-19T19:55:42.280Z,1.60
2023-02-19T19:58:14.297Z,1.60
2023-02-19T20:00:46.609Z,1.73
2023-02-19T20:03:19.734Z,1.50
2023-02-19T20:05:51.696Z,1.60
2023-02-19T20:08:23.725Z,2.00
2023-02-19T20:10:55.635Z,1.93
2023-02-19T20:13:30.516Z,1.87
2023-02-19T20:16:02.709Z,1.83
2023-02-19T20:18:34.954Z,1.70
2023-02-19T20:21:11.232Z,2.07
2023-02-19T20:23:43.325Z,1.97
2023-02-19T20:26:27.046Z,1.93
2023-02-19T20:28:59.222Z,2.20
2023-02-19T20:31:31.312Z,2.20
2023-02-19T20:34:03.657Z,2.03
2023-02-19T20:36:47.114Z,2.33
2023-02-19T20:39:21.996Z,2.27
2023-02-19T20:41:54.007Z,2.40
2023-02-19T20:44:28.905Z,2.40
2023-02-19T20:47:01.505Z,2.50
2023-02-19T20:49:34.432Z,2.20
2023-02-19T20:52:07.871Z,2.30
2023-02-19T20:54:39.807Z,2.00
2023-02-19T20:57:14.139Z,2.40
2023-02-19T20:59:46.491Z,2.30
2023-02-19T21:02:27.897Z,2.47
2023-02-19T21:05:00.876Z,2.70
2023-02-19T21:07:32.801Z,2.83
2023-02-19T21:10:05.454Z,2.90
2023-02-19T21:12:37.552Z,3.50
2023-02-19T21:15:09.814Z,4.17
2023-02-19T21:17:46.780Z,4.20
2023-02-19T21:20:18.967Z,4.50
2023-02-19T21:22:51.006Z,4.27
2023-02-19T21:25:23.098Z,5.00
2023-02-19T21:27:55.012Z,5.10
2023-02-19T21:30:27.083Z,5.10
2023-02-19T21:32:59.068Z,5.03
2023-02-19T21:35:31.525Z,5.77
2023-02-19T21:38:03.768Z,6.00
2023-02-19T21:40:35.751Z,6.23
2023-02-19T21:43:07.647Z,6.67
2023-02-19T21:45:39.643Z,7.53
2023-02-19T21:48:11.784Z,8.03
2023-02-19T21:50:45.934Z,8.30
2023-02-19T21:53:17.915Z,8.87
2023-02-19T21:55:58.402Z,8.00
2023-02-19T21:58:30.789Z,9.13
2023-02-19T22:01:03.103Z,9.20
2023-02-19T22:03:35.090Z,9.57
2023-02-19T22:06:07.359Z,9.30
2023-02-19T22:08:39.283Z,9.23
2023-02-19T22:11:11.469Z,8.80
2023-02-19T22:13:43.473Z,9.07
2023-02-19T22:16:15.748Z,8.60
2023-02-19T22:18:59.430Z,8.50
2023-02-19T22:21:35.464Z,8.90
2023-02-19T22:24:07.648Z,8.00
2023-02-19T22:26:39.708Z,8.23
2023-02-19T22:29:15.299Z,8.63
2023-02-19T22:31:47.435Z,8.47
2023-02-19T22:34:19.653Z,8.60
2023-02-19T22:36:51.750Z,9.20
2023-02-19T22:39:26.968Z,9.30
2023-02-19T22:41:59.119Z,9.23
2023-02-19T22:44:31.061Z,9.13
2023-02-19T22:47:03.025Z,8.73
2023-02-19T22:49:39.440Z,9.00
2023-02-19T22:52:13.096Z,8.90
2023-02-19T22:54:45.203Z,8.90
2023-02-19T22:57:17.118Z,8.83
2023-02-19T22:59:49.124Z,8.43
2023-02-19T23:02:21.100Z,8.50
2023-02-19T23:04:53.075Z,8.57
2023-02-19T23:07:25.184Z,8.67
2023-02-19T23:09:57.110Z,8.70
2023-02-19T23:12:29.055Z,9.10
2023-02-19T23:15:00.979Z,9.43
2023-02-19T23:17:33.288Z,9.10
2023-02-19T23:20:06.116Z,9.23
2023-02-19T23:22:38.043Z,8.47
2023-02-19T23:25:10.048Z,9.20
2023-02-19T23:27:42.024Z,8.90
2023-02-19T23:30:17.013Z,8.57
2023-02-19T23:32:48.978Z,9.30
2023-02-19T23:35:21.019Z,9.67
2023-02-19T23:37:53.117Z,9.10
2023-02-19T23:40:25.078Z,8.70
2023-02-19T23:42:57.010Z,8.70
2023-02-19T23:45:29.947Z,8.67
2023-02-19T23:48:01.891Z,8.37
2023-02-19T23:50:33.824Z,8.37
2023-02-19T23:53:05.997Z,8.80
2023-02-19T23:55:37.958Z,9.00
2023-02-19T23:58:10.003Z,8.63
